createdAt,value
2023-05-12T00:00:41.284Z,1.5
2023-05-12T00:15:59.401Z,1.2
2023-05-12T00:30:41.378Z,1.4
2023-05-12T00:45:43.189Z,1.4
2023-05-12T01:01:26.828Z,1.6
2023-05-12T01:16:30.569Z,1.7
2023-05-12T01:31:30.882Z,1.3
2023-05-12T01:46:28.652Z,1.8
2023-05-12T02:01:29.182Z,2.2
2023-05-12T02:16:39.060Z,2.5
2023-05-12T02:31:30.598Z,2.9
2023-05-12T02:46:33.302Z,4.6
2023-05-12T03:01:32.472Z,3.8
2023-05-12T03:16:33.570Z,4.9
2023-05-12T03:31:45.996Z,4.4
2023-05-12T04:14:43.703Z,5.5
2023-05-12T04:21:09.661Z,4.3
2023-05-12T04:35:44.210Z,5.5
2023-05-12T04:50:43.150Z,5.1
2023-05-12T05:05:47.023Z,7.9
2023-05-12T05:20:59.301Z,6.4
2023-05-12T05:35:45.675Z,7.9
2023-05-12T05:50:45.975Z,8.2
2023-05-12T06:05:49.434Z,8.2
2023-05-12T07:35:54.568Z,2
2023-05-12T07:51:08.890Z,1.7
2023-05-12T08:20:59.500Z,1
2023-05-12T08:35:58.726Z,0.4
2023-05-12T09:20:36.234Z,0.2
2023-05-12T10:51:06.423Z,0.2
2023-05-12T11:06:07.442Z,0.5
2023-05-12T11:21:05.440Z,0.7
2023-05-12T11:36:34.530Z,0.6
2023-05-12T12:06:06.945Z,0.6
2023-05-12T12:21:36.738Z,0.6
2023-05-12T12:36:07.622Z,0.5
2023-05-12T12:51:08.332Z,0.3
2023-05-12T13:06:09.492Z,0.5
2023-05-12T13:21:10.164Z,0.2
2023-05-12T13:36:09.981Z,0.3
2023-05-12T13:51:10.920Z,0.3
2023-05-12T14:06:11.804Z,0.5
2023-05-12T14:21:12.338Z,0.4
2023-05-12T14:36:13.162Z,0.8
2023-05-12T14:51:13.858Z,0.5
2023-05-12T15:06:16.760Z,0.7
2023-05-12T15:21:14.757Z,0.6
2023-05-12T15:36:15.033Z,0.6
2023-05-12T15:51:15.991Z,0.7
2023-05-12T16:06:17.596Z,1
2023-05-12T16:21:17.221Z,1.5
2023-05-12T16:36:20.092Z,1.1
2023-05-12T16:51:22.289Z,1.2
2023-05-12T17:06:19.856Z,2.8
2023-05-12T17:21:22.775Z,1.3
2023-05-12T17:36:21.255Z,4.2
2023-05-12T17:51:21.619Z,1
2023-05-12T18:06:22.370Z,1.4
2023-05-12T18:21:24.205Z,2
2023-05-12T18:36:25.373Z,2.2
2023-05-12T18:51:24.150Z,4.2
2023-05-12T19:06:24.252Z,4.9
2023-05-12T19:21:25.023Z,5.5
2023-05-12T19:36:26.360Z,5.7
2023-05-12T19:51:26.356Z,6.1
2023-05-12T20:06:26.902Z,6.5
2023-05-12T20:21:27.937Z,7.2
2023-05-12T20:36:27.687Z,8.1
2023-05-12T20:51:28.975Z,8.7
2023-05-12T21:06:30.962Z,9.8
2023-05-12T21:21:31.624Z,9.3
2023-05-12T21:36:29.903Z,9.6
2023-05-12T21:51:30.824Z,11.1
2023-05-12T22:00:38.614Z,10.7
2023-05-12T22:15:38.042Z,12.6
2023-05-12T22:30:37.997Z,12.6
2023-05-12T22:45:39.214Z,12.5
2023-05-12T23:00:40.048Z,12.4
2023-05-12T23:15:40.166Z,12.2
2023-05-12T23:30:50.125Z,12.1
2023-05-12T23:45:41.473Z,12.6
